sensor_id;sensor_type;location;lat;lon;timestamp;pressure;altitude;pressure_sealevel;temperature;humidity
36354;BME280;22383;51.114;13.666;2022-11-20T00:01:29;66517.81;;;-6.21;100.00
36354;BME280;22383;51.114;13.666;2022-11-20T00:03:58;66520.03;;;-6.19;100.00
36354;BME280;22383;51.114;13.666;2022-11-20T00:06:26;66518.16;;;-6.23;100.00
36354;BME280;22383;51.114;13.666;2022-11-20T00:08:59;66467.00;;;-6.25;100.00
36354;BME280;22383;51.114;13.666;2022-11-20T00:11:28;66513.34;;;-6.25;100.00
36354;BME280;22383;51.114;13.666;2022-11-20T00:13:59;66510.53;;;-6.28;100.00
36354;BME280;22383;51.114;13.666;2022-11-20T00:16:29;66507.19;;;-6.31;100.00
36354;BME280;22383;51.114;13.666;2022-11-20T00:18:57;66458.63;;;-6.33;100.00
36354;BME280;22383;51.114;13.666;2022-11-20T00:21:26;66459.19;;;-6.33;100.00
36354;BME280;22383;51.114;13.666;2022-11-20T00:23:55;66503.28;;;-6.35;100.00
36354;BME280;22383;51.114;13.666;2022-11-20T00:26:24;66504.75;;;-6.36;100.00
36354;BME280;22383;51.114;13.666;2022-11-20T00:28:54;66504.75;;;-6.36;100.00
36354;BME280;22383;51.114;13.666;2022-11-20T00:31:22;66500.50;;;-6.37;100.00
36354;BME280;22383;51.114;13.666;2022-11-20T00:33:50;66499.38;;;-6.38;100.00
36354;BME280;22383;51.114;13.666;2022-11-20T00:36:19;66498.25;;;-6.39;100.00
36354;BME280;22383;51.114;13.666;2022-11-20T00:38:50;66497.13;;;-6.40;100.00
36354;BME280;22383;51.114;13.666;2022-11-20T00:41:19;66496.34;;;-6.43;100.00
36354;BME280;22383;51.114;13.666;2022-11-20T00:43:47;66496.94;;;-6.43;100.00
36354;BME280;22383;51.114;13.666;2022-11-20T00:46:17;66503.28;;;-6.35;100.00
36354;BME280;22383;51.114;13.666;2022-11-20T00:48:45;66498.25;;;-6.39;100.00
36354;BME280;22383;51.114;13.666;2022-11-20T00:51:16;66492.66;;;-6.44;100.00
36354;BME280;22383;51.114;13.666;2022-11-20T00:53:44;66489.88;;;-6.47;100.00
36354;BME280;22383;51.114;13.666;2022-11-20T00:56:14;66487.09;;;-6.50;100.00
36354;BME280;22383;51.114;13.666;2022-11-20T00:58:44;66492.88;;;-6.42;100.00
36354;BME280;22383;51.114;13.666;2022-11-20T01:01:12;66495.78;;;-6.44;100.00
36354;BME280;22383;51.114;13.666;2022-11-20T01:03:44;66483.03;;;-6.49;100.00
36354;BME280;22383;51.114;13.666;2022-11-20T01:08:47;66487.09;;;-6.50;100.00
36354;BME280;22383;51.114;13.666;2022-11-20T01:11:21;66485.97;;;-6.51;100.00
36354;BME280;22383;51.114;13.666;2022-11-20T01:13:50;66487.63;;;-6.49;100.00
36354;BME280;22383;51.114;13.666;2022-11-20T01:16:20;66485.97;;;-6.51;100.00
36354;BME280;22383;51.114;13.666;2022-11-20T01:18:50;66486.84;;;-6.52;100.00
36354;BME280;22383;51.114;13.666;2022-11-20T01:21:20;66434.63;;;-6.55;100.00
36354;BME280;22383;51.114;13.666;2022-11-20T01:23:49;66478.72;;;-6.57;100.00
36354;BME280;22383;51.114;13.666;2022-11-20T01:26:19;66477.03;;;-6.59;100.00
36354;BME280;22383;51.114;13.666;2022-11-20T01:28:51;66478.72;;;-6.57;100.00
36354;BME280;22383;51.114;13.666;2022-11-20T01:31:21;66429.03;;;-6.60;100.00
36354;BME280;22383;51.114;13.666;2022-11-20T01:33:51;66465.06;;;-6.72;100.00
36354;BME280;22383;51.114;13.666;2022-11-20T01:36:20;66460.47;;;-6.72;100.00
36354;BME280;22383;51.114;13.666;2022-11-20T01:38:51;66455.59;;;-6.81;100.00
36354;BME280;22383;51.114;13.666;2022-11-20T01:41:20;66454.47;;;-6.82;100.00
36354;BME280;22383;51.114;13.666;2022-11-20T01:44:08;66454.13;;;-6.80;100.00
36354;BME280;22383;51.114;13.666;2022-11-20T01:46:57;66414.53;;;-6.74;100.00
36354;BME280;22383;51.114;13.666;2022-11-20T01:51:59;66398.34;;;-6.89;100.00
36354;BME280;22383;51.114;13.666;2022-11-20T01:54:33;66444.97;;;-6.91;100.00
36354;BME280;22383;51.114;13.666;2022-11-20T01:57:06;66438.16;;;-6.92;100.00
36354;BME280;22383;51.114;13.666;2022-11-20T01:59:39;66444.41;;;-6.91;100.00
36354;BME280;22383;51.114;13.666;2022-11-20T02:02:08;66441.28;;;-6.92;100.00
36354;BME280;22383;51.114;13.666;2022-11-20T02:04:35;66400.34;;;-6.89;100.00
36354;BME280;22383;51.114;13.666;2022-11-20T02:07:03;66396.69;;;-6.90;100.00
36354;BME280;22383;51.114;13.666;2022-11-20T02:09:32;66442.38;;;-6.91;100.00
36354;BME280;22383;51.114;13.666;2022-11-20T02:12:00;66448.56;;;-6.85;100.00
36354;BME280;22383;51.114;13.666;2022-11-20T02:14:27;66449.44;;;-6.87;100.00
36354;BME280;22383;51.114;13.666;2022-11-20T02:16:55;66404.25;;;-6.86;100.00
36354;BME280;22383;51.114;13.666;2022-11-20T02:19:23;66452.47;;;-6.81;100.00
36354;BME280;22383;51.114;13.666;2022-11-20T02:22:02;66451.13;;;-6.85;100.00
36354;BME280;22383;51.114;13.666;2022-11-20T02:24:31;66442.63;;;-6.88;100.00
36354;BME280;22383;51.114;13.666;2022-11-20T02:29:36;66459.16;;;-6.75;100.00
36354;BME280;22383;51.114;13.666;2022-11-20T02:32:05;66453.22;;;-6.78;100.00
36354;BME280;22383;51.114;13.666;2022-11-20T02:34:32;66453.56;;;-6.80;100.00
36354;BME280;22383;51.114;13.666;2022-11-20T02:37:00;66460.63;;;-6.76;100.00
36354;BME280;22383;51.114;13.666;2022-11-20T02:39:28;66482.94;;;-6.56;100.00
36354;BME280;22383;51.114;13.666;2022-11-20T02:41:56;66427.38;;;-6.62;100.00
36354;BME280;22383;51.114;13.666;2022-11-20T02:44:24;66471.66;;;-6.61;100.00
36354;BME280;22383;51.114;13.666;2022-11-20T02:46:51;66455.25;;;-6.79;100.00
36354;BME280;22383;51.114;13.666;2022-11-20T02:49:19;66447.44;;;-6.86;100.00
36354;BME280;22383;51.114;13.666;2022-11-20T02:51:46;66453.78;;;-6.78;100.00
36354;BME280;22383;51.114;13.666;2022-11-20T02:54:13;66456.72;;;-6.80;100.00
36354;BME280;22383;51.114;13.666;2022-11-20T02:56:41;66446.63;;;-6.89;100.00
36354;BME280;22383;51.114;13.666;2022-11-20T02:59:08;66446.53;;;-6.85;100.00
36354;BME280;22383;51.114;13.666;2022-11-20T03:01:36;66451.13;;;-6.85;100.00
36354;BME280;22383;51.114;13.666;2022-11-20T03:04:03;66447.09;;;-6.84;100.00
36354;BME280;22383;51.114;13.666;2022-11-20T03:06:31;66456.03;;;-6.76;100.00
36354;BME280;22383;51.114;13.666;2022-11-20T03:08:58;66399.47;;;-6.88;100.00
36354;BME280;22383;51.114;13.666;2022-11-20T03:11:26;66434.56;;;-6.98;100.00
36354;BME280;22383;51.114;13.666;2022-11-20T03:13:53;66427.53;;;-7.02;100.00
36354;BME280;22383;51.114;13.666;2022-11-20T03:16:22;66420.28;;;-7.09;100.00
36354;BME280;22383;51.114;13.666;2022-11-20T03:18:51;66418.59;;;-7.10;100.00
36354;BME280;22383;51.114;13.666;2022-11-20T03:21:20;66415.81;;;-7.13;100.00
36354;BME280;22383;51.114;13.666;2022-11-20T03:23:48;66426.56;;;-7.08;100.00
36354;BME280;22383;51.114;13.666;2022-11-20T03:26:20;66404.66;;;-7.23;100.00
36354;BME280;22383;51.114;13.666;2022-11-20T03:28:55;66404.66;;;-7.23;100.00
36354;BME280;22383;51.114;13.666;2022-11-20T03:31:34;66357.63;;;-7.26;100.00
36354;BME280;22383;51.114;13.666;2022-11-20T03:34:03;66402.78;;;-7.27;100.00
36354;BME280;22383;51.114;13.666;2022-11-20T03:36:31;66354.25;;;-7.29;100.00
36354;BME280;22383;51.114;13.666;2022-11-20T03:38:58;66399.41;;;-7.30;100.00
36354;BME280;22383;51.114;13.666;2022-11-20T03:41:29;66390.72;;;-7.36;100.00
36354;BME280;22383;51.114;13.666;2022-11-20T03:44:03;66391.06;;;-7.38;100.00
36354;BME280;22383;51.114;13.666;2022-11-20T03:46:31;66389.13;;;-7.42;100.00
36354;BME280;22383;51.114;13.666;2022-11-20T03:48:59;66384.34;;;-7.44;100.00
36354;BME280;22383;51.114;13.666;2022-11-20T03:51:28;66388.03;;;-7.43;100.00
36354;BME280;22383;51.114;13.666;2022-11-20T03:53:58;66382.13;;;-7.46;100.00
36354;BME280;22383;51.114;13.666;2022-11-20T03:56:29;66336.97;;;-7.45;100.00
36354;BME280;22383;51.114;13.666;2022-11-20T03:58:57;66383.44;;;-7.43;100.00
36354;BME280;22383;51.114;13.666;2022-11-20T04:01:25;66386.56;;;-7.42;100.00
36354;BME280;22383;51.114;13.666;2022-11-20T04:03:54;66386.34;;;-7.45;100.00
36354;BME280;22383;51.114;13.666;2022-11-20T04:06:28;66384.13;;;-7.47;100.00
36354;BME280;22383;51.114;13.666;2022-11-20T04:08:57;66383.00;;;-7.48;100.00
36354;BME280;22383;51.114;13.666;2022-11-20T04:11:27;66335.88;;;-7.46;100.00
36354;BME280;22383;51.114;13.666;2022-11-20T04:14:00;66379.09;;;-7.51;100.00
36354;BME280;22383;51.114;13.666;2022-11-20T04:16:32;66378.53;;;-7.52;100.00
36354;BME280;22383;51.114;13.666;2022-11-20T04:19:02;66377.09;;;-7.51;100.00
36354;BME280;22383;51.114;13.666;2022-11-20T04:21:29;66374.84;;;-7.53;100.00
36354;BME280;22383;51.114;13.666;2022-11-20T04:23:57;66373.41;;;-7.52;100.00
36354;BME280;22383;51.114;13.666;2022-11-20T04:26:25;66377.31;;;-7.48;100.00
36354;BME280;22383;51.114;13.666;2022-11-20T04:28:52;66375.06;;;-7.50;100.00
36354;BME280;22383;51.114;13.666;2022-11-20T04:31:22;66375.97;;;-7.52;100.00
36354;BME280;22383;51.114;13.666;2022-11-20T04:33:52;66329.75;;;-7.52;100.00
36354;BME280;22383;51.114;13.666;2022-11-20T04:36:20;66385.22;;;-7.46;100.00
36354;BME280;22383;51.114;13.666;2022-11-20T04:38:56;66379.53;;;-7.46;100.00
36354;BME280;22383;51.114;13.666;2022-11-20T04:41:29;66380.09;;;-7.46;100.00
36354;BME280;22383;51.114;13.666;2022-11-20T04:43:59;66385.78;;;-7.45;100.00
36354;BME280;22383;51.114;13.666;2022-11-20T04:46:31;66381.22;;;-7.45;100.00
36354;BME280;22383;51.114;13.666;2022-11-20T04:48:59;66343.44;;;-7.42;100.00
36354;BME280;22383;51.114;13.666;2022-11-20T04:51:27;66385.78;;;-7.45;100.00
36354;BME280;22383;51.114;13.666;2022-11-20T04:53:54;66380.09;;;-7.46;100.00
36354;BME280;22383;51.114;13.666;2022-11-20T04:56:22;66382.66;;;-7.46;100.00
36354;BME280;22383;51.114;13.666;2022-11-20T04:58:49;66379.88;;;-7.48;100.00
36354;BME280;22383;51.114;13.666;2022-11-20T05:01:23;66379.00;;;-7.47;100.00
36354;BME280;22383;51.114;13.666;2022-11-20T05:03:51;66379.31;;;-7.49;100.00
36354;BME280;22383;51.114;13.666;2022-11-20T05:06:20;66378.22;;;-7.50;100.00
36354;BME280;22383;51.114;13.666;2022-11-20T05:08:48;66377.31;;;-7.48;100.00
36354;BME280;22383;51.114;13.666;2022-11-20T05:11:18;66380.19;;;-7.50;100.00
36354;BME280;22383;51.114;13.666;2022-11-20T05:13:47;66370.94;;;-7.56;100.00
36354;BME280;22383;51.114;13.666;2022-11-20T05:16:19;66377.63;;;-7.50;100.00
36354;BME280;22383;51.114;13.666;2022-11-20T05:18:47;66333.63;;;-7.48;100.00
36354;BME280;22383;51.114;13.666;2022-11-20T05:21:15;66319.13;;;-7.62;100.00
36354;BME280;22383;51.114;13.666;2022-11-20T05:23:44;66364.59;;;-7.65;100.00
36354;BME280;22383;51.114;13.666;2022-11-20T05:26:15;66316.91;;;-7.64;100.00
36354;BME280;22383;51.114;13.666;2022-11-20T05:28:43;66371.50;;;-7.56;100.00
36354;BME280;22383;51.114;13.666;2022-11-20T05:31:13;66314.34;;;-7.64;100.00
36354;BME280;22383;51.114;13.666;2022-11-20T05:33:42;66362.78;;;-7.62;100.00
36354;BME280;22383;51.114;13.666;2022-11-20T05:36:12;66320.25;;;-7.61;100.00
36354;BME280;22383;51.114;13.666;2022-11-20T05:38:41;66363.34;;;-7.61;100.00
36354;BME280;22383;51.114;13.666;2022-11-20T05:41:14;66361.47;;;-7.65;100.00
36354;BME280;22383;51.114;13.666;2022-11-20T05:43:43;66356.44;;;-7.70;100.00
36354;BME280;22383;51.114;13.666;2022-11-20T05:46:14;66357.91;;;-7.71;100.00
36354;BME280;22383;51.114;13.666;2022-11-20T05:48:44;66307.97;;;-7.72;100.00
36354;BME280;22383;51.114;13.666;2022-11-20T05:51:15;66351.97;;;-7.74;100.00
36354;BME280;22383;51.114;13.666;2022-11-20T05:53:44;66304.63;;;-7.75;100.00
36354;BME280;22383;51.114;13.666;2022-11-20T05:56:20;66300.72;;;-7.79;100.00
36354;BME280;22383;51.114;13.666;2022-11-20T05:58:48;66342.50;;;-7.83;100.00
36354;BME280;22383;51.114;13.666;2022-11-20T06:01:20;66342.28;;;-7.85;100.00
36354;BME280;22383;51.114;13.666;2022-11-20T06:03:48;66340.03;;;-7.87;100.00
36354;BME280;22383;51.114;13.666;2022-11-20T06:06:19;66345.06;;;-7.83;100.00
36354;BME280;22383;51.114;13.666;2022-11-20T06:08:47;66296.28;;;-7.83;100.00
36354;BME280;22383;51.114;13.666;2022-11-20T06:11:15;66338.78;;;-7.84;100.00
36354;BME280;22383;51.114;13.666;2022-11-20T06:13:43;66339.47;;;-7.88;100.00
36354;BME280;22383;51.114;13.666;2022-11-20T06:16:14;66329.31;;;-7.92;100.00
36354;BME280;22383;51.114;13.666;2022-11-20T06:18:42;66337.47;;;-7.87;100.00
36354;BME280;22383;51.114;13.666;2022-11-20T06:21:17;66333.00;;;-7.91;100.00
36354;BME280;22383;51.114;13.666;2022-11-20T06:23:45;66335.81;;;-7.89;100.00
36354;BME280;22383;51.114;13.666;2022-11-20T06:26:24;66294.94;;;-7.86;100.00
36354;BME280;22383;51.114;13.666;2022-11-20T06:28:52;66345.06;;;-7.83;100.00
36354;BME280;22383;51.114;13.666;2022-11-20T06:31:21;66346.94;;;-7.79;100.00
36354;BME280;22383;51.114;13.666;2022-11-20T06:33:50;66348.63;;;-7.77;100.00
36354;BME280;22383;51.114;13.666;2022-11-20T06:36:19;66349.19;;;-7.76;100.00
36354;BME280;22383;51.114;13.666;2022-11-20T06:38:48;66348.84;;;-7.74;100.00
36354;BME280;22383;51.114;13.666;2022-11-20T06:41:18;66310.78;;;-7.69;100.00
36354;BME280;22383;51.114;13.666;2022-11-20T06:43:46;66363.47;;;-7.66;100.00
36354;BME280;22383;51.114;13.666;2022-11-20T06:46:15;66362.59;;;-7.64;100.00
36354;BME280;22383;51.114;13.666;2022-11-20T06:48:45;66317.47;;;-7.63;100.00
36354;BME280;22383;51.114;13.666;2022-11-20T06:51:12;66365.72;;;-7.64;100.00
36354;BME280;22383;51.114;13.666;2022-11-20T06:53:40;66315.22;;;-7.65;100.00
36354;BME280;22383;51.114;13.666;2022-11-20T06:56:08;66367.94;;;-7.62;100.00
36354;BME280;22383;51.114;13.666;2022-11-20T06:58:35;66369.81;;;-7.57;100.00
36354;BME280;22383;51.114;13.666;2022-11-20T07:01:06;66373.19;;;-7.54;100.00
36354;BME280;22383;51.114;13.666;2022-11-20T07:03:34;66381.00;;;-7.47;100.00
36354;BME280;22383;51.114;13.666;2022-11-20T07:06:03;66333.28;;;-7.46;100.00
36354;BME280;22383;51.114;13.666;2022-11-20T07:08:31;66343.13;;;-7.39;100.00
36354;BME280;22383;51.114;13.666;2022-11-20T07:11:05;66384.69;;;-7.46;100.00
36354;BME280;22383;51.114;13.666;2022-11-20T07:13:33;66381.78;;;-7.44;100.00
36354;BME280;22383;51.114;13.666;2022-11-20T07:16:05;66387.13;;;-7.42;100.00
36354;BME280;22383;51.114;13.666;2022-11-20T07:18:34;66393.28;;;-7.36;100.00
36354;BME280;22383;51.114;13.666;2022-11-20T07:21:05;66396.06;;;-7.33;100.00
36354;BME280;22383;51.114;13.666;2022-11-20T07:23:33;66402.53;;;-7.30;100.00
36354;BME280;22383;51.114;13.666;2022-11-20T07:26:03;66403.31;;;-7.27;100.00
36354;BME280;22383;51.114;13.666;2022-11-20T07:28:33;66401.66;;;-7.28;100.00
36354;BME280;22383;51.114;13.666;2022-11-20T07:31:03;66413.16;;;-7.20;100.00
36354;BME280;22383;51.114;13.666;2022-11-20T07:33:32;66412.47;;;-7.16;100.00
36354;BME280;22383;51.114;13.666;2022-11-20T07:35:59;66420.06;;;-7.11;100.00
36354;BME280;22383;51.114;13.666;2022-11-20T07:38:27;66423.97;;;-7.08;100.00
36354;BME280;22383;51.114;13.666;2022-11-20T07:40:55;66386.06;;;-7.00;100.00
36354;BME280;22383;51.114;13.666;2022-11-20T07:43:25;66456.56;;;-6.75;100.00
36354;BME280;22383;51.114;13.666;2022-11-20T07:45:55;66508.88;;;-6.30;100.00
36354;BME280;22383;51.114;13.666;2022-11-20T07:48:23;66542.06;;;-5.97;100.00
36354;BME280;22383;51.114;13.666;2022-11-20T07:50:56;66612.69;;;-5.29;100.00
36354;BME280;22383;51.114;13.666;2022-11-20T07:53:24;66690.78;;;-4.60;100.00
36354;BME280;22383;51.114;13.666;2022-11-20T07:55:52;66731.19;;;-3.85;100.00
36354;BME280;22383;51.114;13.666;2022-11-20T07:58:20;66737.38;;;-4.22;100.00
36354;BME280;22383;51.114;13.666;2022-11-20T08:00:47;66750.47;;;-4.08;100.00
36354;BME280;22383;51.114;13.666;2022-11-20T08:03:15;66774.53;;;-3.86;100.00
36354;BME280;22383;51.114;13.666;2022-11-20T08:05:50;66843.66;;;-3.20;100.00
36354;BME280;22383;51.114;13.666;2022-11-20T08:08:17;66883.81;;;-2.86;100.00
36354;BME280;22383;51.114;13.666;2022-11-20T08:10:45;66928.88;;;-2.42;100.00
36354;BME280;22383;51.114;13.666;2022-11-20T08:13:12;66930.34;;;-2.43;100.00
36354;BME280;22383;51.114;13.666;2022-11-20T08:15:58;66909.03;;;-2.62;100.00
36354;BME280;22383;51.114;13.666;2022-11-20T08:18:25;66863.28;;;-3.02;100.00
36354;BME280;22383;51.114;13.666;2022-11-20T08:21:03;66817.13;;;-3.47;100.00
36354;BME280;22383;51.114;13.666;2022-11-20T08:23:31;66758.31;;;-4.01;100.00
36354;BME280;22383;51.114;13.666;2022-11-20T08:25:59;66764.47;;;-3.95;100.00
36354;BME280;22383;51.114;13.666;2022-11-20T08:28:27;66756.97;;;-4.04;100.00
36354;BME280;22383;51.114;13.666;2022-11-20T08:31:03;66796.03;;;-3.64;100.00
36354;BME280;22383;51.114;13.666;2022-11-20T08:33:31;66825.16;;;-3.37;100.00
36354;BME280;22383;51.114;13.666;2022-11-20T08:36:01;66831.34;;;-3.31;100.00
36354;BME280;22383;51.114;13.666;2022-11-20T08:38:29;66856.91;;;-3.10;100.00
36354;BME280;22383;51.114;13.666;2022-11-20T08:41:01;66875.38;;;-2.93;100.00
36354;BME280;22383;51.114;13.666;2022-11-20T08:43:48;66853.53;;;-3.13;100.00
36354;BME280;22383;51.114;13.666;2022-11-20T08:46:16;66857.47;;;-3.10;100.00
36354;BME280;22383;51.114;13.666;2022-11-20T08:48:43;66919.66;;;-2.53;100.00
36354;BME280;22383;51.114;13.666;2022-11-20T08:51:11;66907.34;;;-2.64;100.00
36354;BME280;22383;51.114;13.666;2022-11-20T08:53:39;66880.28;;;-2.84;100.00
36354;BME280;22383;51.114;13.666;2022-11-20T08:56:08;66815.22;;;-3.51;100.00
36354;BME280;22383;51.114;13.666;2022-11-20T08:58:37;66777.34;;;-3.83;100.00
36354;BME280;22383;51.114;13.666;2022-11-20T09:01:26;66737.59;;;-4.20;100.00
36354;BME280;22383;51.114;13.666;2022-11-20T09:03:56;66741.31;;;-4.19;100.00
36354;BME280;22383;51.114;13.666;2022-11-20T09:06:24;66764.81;;;-3.97;100.00
36354;BME280;22383;51.114;13.666;2022-11-20T09:08:55;66775.13;;;-3.85;100.00
36354;BME280;22383;51.114;13.666;2022-11-20T09:11:29;66817.69;;;-3.46;100.00
36354;BME280;22383;51.114;13.666;2022-11-20T09:13:57;66827.56;;;-3.39;100.00
36354;BME280;22383;51.114;13.666;2022-11-20T09:16:24;66893.34;;;-2.77;100.00
36354;BME280;22383;51.114;13.666;2022-11-20T09:18:52;66937.97;;;-2.38;100.00
36354;BME280;22383;51.114;13.666;2022-11-20T09:21:39;66992.03;;;-1.86;100.00
36354;BME280;22383;51.114;13.666;2022-11-20T09:24:07;66992.59;;;-1.86;100.00
36354;BME280;22383;51.114;13.666;2022-11-20T09:26:34;67031.66;;;-1.53;100.00
36354;BME280;22383;51.114;13.666;2022-11-20T09:29:02;66991.69;;;-1.84;100.00
36354;BME280;22383;51.114;13.666;2022-11-20T09:31:29;66968.25;;;-2.11;100.00
36354;BME280;22383;51.114;13.666;2022-11-20T09:33:57;66965.66;;;-2.11;100.00
36354;BME280;22383;51.114;13.666;2022-11-20T09:36:24;67010.00;;;-1.70;100.00
36354;BME280;22383;51.114;13.666;2022-11-20T09:38:52;67056.56;;;-1.27;100.00
36354;BME280;22383;51.114;13.666;2022-11-20T09:44:34;67055.22;;;-1.31;100.00
36354;BME280;22383;51.114;13.666;2022-11-20T09:53:11;67111.25;;;-0.75;100.00
36354;BME280;22383;51.114;13.666;2022-11-20T09:55:39;67152.03;;;-0.40;100.00
36354;BME280;22383;51.114;13.666;2022-11-20T09:58:15;67166.28;;;-0.25;100.00
36354;BME280;22383;51.114;13.666;2022-11-20T10:00:44;67155.59;;;-0.34;100.00
36354;BME280;22383;51.114;13.666;2022-11-20T10:03:16;67135.59;;;-0.50;100.00
36354;BME280;22383;51.114;13.666;2022-11-20T10:05:53;67139.66;;;-0.51;100.00
36354;BME280;22383;51.114;13.666;2022-11-20T10:08:43;67097.19;;;-0.88;100.00
36354;BME280;22383;51.114;13.666;2022-11-20T10:11:19;67115.53;;;-0.73;100.00
36354;BME280;22383;51.114;13.666;2022-11-20T10:23:30;67195.50;;;0.02;100.00
36354;BME280;22383;51.114;13.666;2022-11-20T10:25:51;67175.81;;;-0.16;100.00
36354;BME280;22383;51.114;13.666;2022-11-20T10:28:24;67153.91;;;-0.36;100.00
36354;BME280;22383;51.114;13.666;2022-11-20T10:31:12;67092.50;;;-0.94;100.00
36354;BME280;22383;51.114;13.666;2022-11-20T10:33:46;67082.38;;;-1.04;100.00
36354;BME280;22383;51.114;13.666;2022-11-20T10:36:43;67070.03;;;-1.15;100.00
36354;BME280;22383;51.114;13.666;2022-11-20T10:39:19;67062.75;;;-1.22;100.00
36354;BME280;22383;51.114;13.666;2022-11-20T10:41:52;67069.13;;;-1.13;100.00
36354;BME280;22383;51.114;13.666;2022-11-20T10:44:22;67056.78;;;-1.25;100.00
36354;BME280;22383;51.114;13.666;2022-11-20T10:47:17;67064.41;;;-1.20;100.00
36354;BME280;22383;51.114;13.666;2022-11-20T10:49:49;67050.94;;;-1.33;100.00
36354;BME280;22383;51.114;13.666;2022-11-20T11:00:07;67075.09;;;-1.10;100.00
36354;BME280;22383;51.114;13.666;2022-11-20T11:02:51;67094.38;;;-0.90;100.00
36354;BME280;22383;51.114;13.666;2022-11-20T11:08:19;67095.44;;;-0.97;100.00
36354;BME280;22383;51.114;13.666;2022-11-20T11:10:55;67067.22;;;-1.18;100.00
36354;BME280;22383;51.114;13.666;2022-11-20T11:13:30;67075.44;;;-1.12;100.00
36354;BME280;22383;51.114;13.666;2022-11-20T11:15:59;67063.50;;;-1.19;100.00
36354;BME280;22383;51.114;13.666;2022-11-20T11:18:29;67070.16;;;-1.20;100.00
36354;BME280;22383;51.114;13.666;2022-11-20T11:22:00;67098.25;;;-0.94;100.00
36354;BME280;22383;51.114;13.666;2022-11-20T11:24:35;67108.84;;;-0.72;100.00
36354;BME280;22383;51.114;13.666;2022-11-20T11:27:14;67141.78;;;-0.45;100.00
36354;BME280;22383;51.114;13.666;2022-11-20T11:29:46;67161.91;;;-0.33;100.00
36354;BME280;22383;51.114;13.666;2022-11-20T11:32:18;67151.47;;;-0.41;100.00
36354;BME280;22383;51.114;13.666;2022-11-20T11:35:02;67138.97;;;-0.47;100.00
36354;BME280;22383;51.114;13.666;2022-11-20T11:37:37;67163.59;;;-0.32;100.00
36354;BME280;22383;51.114;13.666;2022-11-20T11:40:08;67169.09;;;-0.22;100.00
36354;BME280;22383;51.114;13.666;2022-11-20T11:42:57;67162.69;;;-0.30;100.00
36354;BME280;22383;51.114;13.666;2022-11-20T11:45:25;67156.88;;;-0.38;100.00
36354;BME280;22383;51.114;13.666;2022-11-20T11:47:56;67146.97;;;-0.45;100.00
36354;BME280;22383;51.114;13.666;2022-11-20T11:50:27;67187.63;;;-0.05;100.00
36354;BME280;22383;51.114;13.666;2022-11-20T11:53:45;67211.94;;;0.12;100.00
36354;BME280;22383;51.114;13.666;2022-11-20T12:02:29;67258.66;;;0.62;100.00
36354;BME280;22383;51.114;13.666;2022-11-20T12:04:46;67258.09;;;0.62;100.00
36354;BME280;22383;51.114;13.666;2022-11-20T12:07:25;67218.91;;;0.21;100.00
36354;BME280;22383;51.114;13.666;2022-11-20T12:10:20;67209.34;;;0.12;100.00
36354;BME280;22383;51.114;13.666;2022-11-20T12:12:55;67207.50;;;0.15;100.00
36354;BME280;22383;51.114;13.666;2022-11-20T12:15:33;67209.69;;;0.10;100.00
36354;BME280;22383;51.114;13.666;2022-11-20T12:18:18;67213.47;;;0.18;100.00
36354;BME280;22383;51.114;13.666;2022-11-20T12:43:24;67067.78;;;-1.17;100.00
36354;BME280;22383;51.114;13.666;2022-11-20T12:46:17;67103.94;;;-0.82;100.00
36354;BME280;22383;51.114;13.666;2022-11-20T12:54:40;67076.75;;;-1.09;100.00
36354;BME280;22383;51.114;13.666;2022-11-20T13:00:03;67055.44;;;-1.28;100.00
36354;BME280;22383;51.114;13.666;2022-11-20T13:05:53;67025.69;;;-1.56;100.00
36354;BME280;22383;51.114;13.666;2022-11-20T13:08:53;67041.19;;;-1.44;100.00
36354;BME280;22383;51.114;13.666;2022-11-20T13:19:31;67048.72;;;-1.35;100.00
36354;BME280;22383;51.114;13.666;2022-11-20T13:21:59;67041.63;;;-1.39;100.00
36354;BME280;22383;51.114;13.666;2022-11-20T13:24:28;67039.59;;;-1.38;100.00
36354;BME280;22383;51.114;13.666;2022-11-20T13:29:36;67030.97;;;-1.48;100.00
36354;BME280;22383;51.114;13.666;2022-11-20T13:32:19;67030.41;;;-1.49;100.00
36354;BME280;22383;51.114;13.666;2022-11-20T13:35:01;67042.19;;;-1.38;100.00
36354;BME280;22383;51.114;13.666;2022-11-20T13:40:12;67022.53;;;-1.56;100.00
36354;BME280;22383;51.114;13.666;2022-11-20T13:42:45;67015.44;;;-1.60;100.00
36354;BME280;22383;51.114;13.666;2022-11-20T13:45:24;67033.91;;;-1.50;100.00
36354;BME280;22383;51.114;13.666;2022-11-20T13:47:55;67032.06;;;-1.47;100.00
36354;BME280;22383;51.114;13.666;2022-11-20T13:53:17;67029.41;;;-1.55;100.00
36354;BME280;22383;51.114;13.666;2022-11-20T13:55:53;67013.69;;;-1.69;100.00
36354;BME280;22383;51.114;13.666;2022-11-20T13:58:44;67001.00;;;-1.78;100.00
36354;BME280;22383;51.114;13.666;2022-11-20T14:01:20;66989.66;;;-1.84;100.00
36354;BME280;22383;51.114;13.666;2022-11-20T14:03:48;66992.59;;;-1.86;100.00
36354;BME280;22383;51.114;13.666;2022-11-20T14:06:39;66983.63;;;-1.94;100.00
36354;BME280;22383;51.114;13.666;2022-11-20T14:09:30;66979.13;;;-1.98;100.00
36354;BME280;22383;51.114;13.666;2022-11-20T14:11:59;66973.19;;;-2.01;100.00
36354;BME280;22383;51.114;13.666;2022-11-20T14:14:28;66965.09;;;-2.11;100.00
36354;BME280;22383;51.114;13.666;2022-11-20T14:17:19;66957.44;;;-2.16;100.00
36354;BME280;22383;51.114;13.666;2022-11-20T14:19:49;66949.75;;;-2.28;100.00
36354;BME280;22383;51.114;13.666;2022-11-20T14:22:23;66938.75;;;-2.35;100.00
36354;BME280;22383;51.114;13.666;2022-11-20T14:27:43;66912.81;;;-2.54;100.00
36354;BME280;22383;51.114;13.666;2022-11-20T14:30:16;66910.91;;;-2.58;100.00
36354;BME280;22383;51.114;13.666;2022-11-20T14:32:46;66911.47;;;-2.58;100.00
36354;BME280;22383;51.114;13.666;2022-11-20T14:35:27;66900.84;;;-2.68;100.00
36354;BME280;22383;51.114;13.666;2022-11-20T14:37:56;66896.91;;;-2.71;100.00
36354;BME280;22383;51.114;13.666;2022-11-20T14:40:33;66891.31;;;-2.76;100.00